createdAt,value
2017-10-25T00:01:58.064Z,20.10
2017-10-25T00:04:25.180Z,20.10
2017-10-25T00:06:53.063Z,20.10
2017-10-25T00:09:20.215Z,20.00
2017-10-25T00:11:47.327Z,20.00
2017-10-25T00:14:14.447Z,20.00
2017-10-25T00:16:41.567Z,20.00
2017-10-25T00:19:09.467Z,20.10
2017-10-25T00:21:36.587Z,20.00
2017-10-25T00:24:03.699Z,20.10
2017-10-25T00:26:31.492Z,20.00
2017-10-25T00:28:59.379Z,20.00
2017-10-25T00:31:26.518Z,20.00
2017-10-25T00:33:53.636Z,20.00
2017-10-25T00:36:20.755Z,20.00
2017-10-25T00:38:47.878Z,20.10
2017-10-25T00:41:14.999Z,20.00
2017-10-25T00:43:43.819Z,20.00
2017-10-25T00:46:10.941Z,20.00
2017-10-25T00:48:38.819Z,20.00
2017-10-25T00:51:06.706Z,20.00
2017-10-25T00:53:33.821Z,20.00
2017-10-25T00:56:02.520Z,20.00
2017-10-25T00:58:30.422Z,19.90
2017-10-25T01:00:57.545Z,19.90
2017-10-25T01:03:24.667Z,20.00
2017-10-25T01:05:51.783Z,20.00
2017-10-25T01:08:18.894Z,20.00
2017-10-25T01:10:46.778Z,20.00
2017-10-25T01:13:13.930Z,20.00
2017-10-25T01:15:41.944Z,20.00
2017-10-25T01:18:10.572Z,20.00
2017-10-25T01:20:37.686Z,20.00
2017-10-25T01:23:05.598Z,20.00
2017-10-25T01:25:32.718Z,20.00
2017-10-25T01:28:01.126Z,20.00
2017-10-25T01:30:29.149Z,20.00
2017-10-25T01:32:56.268Z,20.00
2017-10-25T01:35:23.383Z,20.00
2017-10-25T01:37:51.266Z,20.00
2017-10-25T01:40:18.378Z,20.00
2017-10-25T01:42:45.497Z,20.00
2017-10-25T01:45:12.624Z,20.00
2017-10-25T01:47:39.743Z,20.00
2017-10-25T01:50:07.629Z,19.90
2017-10-25T01:52:34.764Z,19.90
2017-10-25T01:55:02.639Z,20.00
2017-10-25T01:57:30.814Z,20.00
2017-10-25T01:59:59.463Z,20.00
2017-10-25T02:02:26.578Z,20.00
2017-10-25T02:04:53.691Z,20.00
2017-10-25T02:07:21.575Z,20.00
2017-10-25T02:09:49.458Z,20.00
2017-10-25T02:12:16.616Z,20.00
2017-10-25T02:14:44.535Z,20.00
2017-10-25T02:17:11.653Z,20.00
2017-10-25T02:19:38.771Z,20.00
2017-10-25T02:22:05.890Z,20.00
2017-10-25T02:24:33.051Z,20.00
2017-10-25T02:27:01.499Z,20.00
2017-10-25T02:29:28.625Z,20.00
2017-10-25T02:31:55.749Z,20.00
2017-10-25T02:34:22.865Z,20.00
2017-10-25T02:36:50.807Z,20.00
2017-10-25T02:39:17.930Z,20.00
2017-10-25T02:41:45.047Z,20.00
2017-10-25T02:44:12.935Z,20.00
2017-10-25T02:46:40.059Z,20.00
2017-10-25T02:49:08.096Z,20.00
2017-10-25T02:51:35.210Z,20.00
2017-10-25T02:54:03.123Z,20.00
2017-10-25T02:56:31.787Z,20.00
2017-10-25T02:58:58.908Z,20.00
2017-10-25T03:01:27.720Z,20.00
2017-10-25T03:03:54.834Z,20.00
2017-10-25T03:06:22.714Z,20.00
2017-10-25T03:08:51.443Z,20.00
2017-10-25T03:11:19.339Z,20.00
2017-10-25T03:13:47.350Z,19.90
2017-10-25T03:16:14.463Z,20.00
2017-10-25T03:18:41.578Z,20.00
2017-10-25T03:21:08.739Z,20.00
2017-10-25T03:23:35.855Z,20.00
2017-10-25T03:26:02.967Z,20.00
2017-10-25T03:28:30.086Z,20.00
2017-10-25T03:30:57.981Z,20.00
2017-10-25T03:33:25.147Z,20.00
2017-10-25T03:35:53.040Z,20.00
2017-10-25T03:38:20.208Z,20.00
2017-10-25T03:40:47.315Z,20.00
2017-10-25T03:43:15.240Z,20.00
2017-10-25T03:45:42.364Z,20.00
2017-10-25T03:48:10.327Z,20.10
2017-10-25T03:50:37.455Z,20.10
2017-10-25T03:53:05.339Z,20.20
2017-10-25T03:55:34.159Z,20.20
2017-10-25T03:58:01.287Z,20.20
2017-10-25T04:00:28.407Z,20.30
2017-10-25T04:02:56.307Z,20.20
2017-10-25T04:05:24.228Z,20.20
2017-10-25T04:07:52.266Z,20.20
2017-10-25T04:10:19.419Z,20.20
2017-10-25T04:12:46.543Z,20.20
2017-10-25T04:15:13.659Z,20.20
2017-10-25T04:17:41.727Z,20.20
2017-10-25T04:20:08.850Z,20.20
2017-10-25T04:22:36.731Z,20.10
2017-10-25T04:25:04.771Z,20.10
2017-10-25T04:27:32.758Z,20.20
2017-10-25T04:29:59.878Z,20.20
2017-10-25T04:32:27.044Z,20.20
2017-10-25T04:34:54.943Z,20.20
2017-10-25T04:37:22.959Z,20.10
2017-10-25T04:39:50.839Z,20.10
2017-10-25T04:42:17.955Z,20.10
2017-10-25T04:44:45.898Z,20.10
2017-10-25T04:47:13.015Z,20.10
2017-10-25T04:49:40.906Z,20.20
2017-10-25T04:52:08.951Z,20.20
2017-10-25T04:54:36.863Z,20.10
2017-10-25T04:57:04.919Z,20.10
2017-10-25T04:59:33.983Z,20.10
2017-10-25T05:02:02.672Z,20.10
2017-10-25T05:04:29.787Z,20.10
2017-10-25T05:06:57.721Z,20.20
2017-10-25T05:09:25.763Z,20.10
2017-10-25T05:11:53.679Z,20.10
2017-10-25T05:14:21.766Z,20.10
2017-10-25T05:16:49.815Z,20.10
2017-10-25T05:19:16.934Z,20.10
2017-10-25T05:21:44.063Z,20.10
2017-10-25T05:24:12.750Z,20.10
2017-10-25T05:26:40.636Z,20.10
2017-10-25T05:29:07.746Z,20.10
2017-10-25T05:31:34.859Z,20.10
2017-10-25T05:34:02.502Z,20.10
2017-10-25T05:36:29.620Z,20.10
2017-10-25T05:38:57.499Z,20.20
2017-10-25T05:41:25.386Z,20.10
2017-10-25T05:43:52.504Z,20.10
2017-10-25T05:46:20.449Z,20.10
2017-10-25T05:48:47.572Z,20.10
2017-10-25T05:51:14.697Z,20.10
2017-10-25T05:53:41.806Z,20.10
2017-10-25T05:56:08.920Z,20.10
2017-10-25T05:58:36.031Z,20.10
2017-10-25T06:01:03.914Z,20.00
2017-10-25T06:03:31.028Z,20.00
2017-10-25T06:05:58.138Z,20.00
2017-10-25T06:08:25.251Z,20.10
2017-10-25T06:10:53.130Z,20.10
2017-10-25T06:13:20.255Z,20.10
2017-10-25T06:15:48.149Z,20.00
2017-10-25T06:18:15.305Z,20.00
2017-10-25T06:20:42.419Z,20.00
2017-10-25T06:23:09.527Z,20.00
2017-10-25T06:25:36.643Z,20.10
2017-10-25T06:28:04.537Z,20.00
2017-10-25T06:30:33.729Z,19.90
2017-10-25T06:33:00.848Z,19.90
2017-10-25T06:35:28.786Z,19.80
2017-10-25T06:37:56.708Z,19.80
2017-10-25T06:40:24.755Z,19.80
2017-10-25T06:42:52.643Z,19.70
2017-10-25T06:45:20.536Z,19.90
2017-10-25T06:47:47.682Z,19.90
2017-10-25T06:50:14.800Z,20.10
2017-10-25T06:52:43.633Z,20.30
2017-10-25T06:55:10.747Z,20.30
2017-10-25T06:57:39.438Z,20.30
2017-10-25T07:00:07.330Z,20.20
2017-10-25T07:02:34.451Z,20.20
2017-10-25T07:05:02.896Z,20.30
2017-10-25T07:07:30.803Z,20.30
2017-10-25T07:09:58.732Z,20.30
2017-10-25T07:12:25.847Z,20.20
2017-10-25T07:14:53.005Z,20.20
2017-10-25T07:17:20.122Z,20.20
2017-10-25T07:19:48.009Z,20.10
2017-10-25T07:22:15.143Z,20.10
2017-10-25T07:24:43.036Z,20.10
2017-10-25T07:27:11.055Z,20.10
2017-10-25T07:29:38.172Z,20.20
2017-10-25T07:32:06.064Z,20.10
2017-10-25T07:34:33.180Z,20.20
2017-10-25T07:37:00.334Z,20.20
2017-10-25T07:39:27.447Z,20.20
2017-10-25T07:41:55.331Z,20.20
2017-10-25T07:44:23.367Z,20.20
2017-10-25T07:46:50.520Z,20.10
2017-10-25T07:49:18.555Z,20.10
2017-10-25T07:51:46.494Z,20.20
2017-10-25T07:54:14.514Z,20.20
2017-10-25T07:56:42.430Z,20.20
2017-10-25T07:59:10.472Z,20.20
2017-10-25T08:01:38.362Z,20.10
2017-10-25T08:04:06.247Z,20.10
2017-10-25T08:06:34.083Z,20.10
2017-10-25T08:09:03.335Z,20.20
2017-10-25T08:11:31.357Z,20.10
2017-10-25T08:13:59.246Z,20.10
2017-10-25T08:16:27.288Z,20.10
2017-10-25T08:18:54.406Z,20.10
2017-10-25T08:21:21.563Z,20.10
2017-10-25T08:23:49.489Z,20.10
2017-10-25T08:26:17.549Z,20.10
2017-10-25T08:28:45.549Z,20.10
2017-10-25T08:31:12.681Z,20.10
2017-10-25T08:33:39.801Z,20.10
2017-10-25T08:36:07.687Z,20.10
2017-10-25T08:38:34.842Z,20.10
2017-10-25T08:41:01.967Z,20.10
2017-10-25T08:43:29.085Z,20.10
2017-10-25T08:45:56.312Z,20.10
2017-10-25T08:48:23.492Z,20.10
2017-10-25T08:50:50.656Z,20.10
2017-10-25T08:53:17.804Z,20.00
2017-10-25T08:55:44.921Z,20.10
2017-10-25T08:58:12.839Z,20.10
2017-10-25T09:00:40.857Z,20.10
2017-10-25T09:03:08.046Z,20.10
2017-10-25T09:05:35.166Z,20.10
2017-10-25T09:08:03.626Z,20.10
2017-10-25T09:10:30.738Z,20.10
2017-10-25T09:12:57.860Z,20.00
2017-10-25T09:15:25.812Z,20.10
2017-10-25T09:17:52.969Z,20.10
2017-10-25T09:20:21.021Z,20.10
2017-10-25T09:22:48.130Z,20.10
2017-10-25T09:25:15.286Z,20.10
2017-10-25T09:27:42.416Z,20.00
2017-10-25T09:30:09.542Z,20.10
2017-10-25T09:32:36.694Z,20.10
2017-10-25T09:35:04.438Z,20.20
2017-10-25T09:37:31.559Z,20.10
2017-10-25T09:39:59.447Z,20.10
2017-10-25T09:42:27.334Z,20.10
2017-10-25T09:44:54.456Z,20.10
2017-10-25T09:47:22.347Z,20.10
2017-10-25T09:49:49.463Z,20.10
2017-10-25T09:52:16.623Z,20.10
2017-10-25T09:54:44.523Z,20.10
2017-10-25T09:57:11.638Z,20.00
2017-10-25T09:59:39.528Z,20.20
2017-10-25T10:02:06.663Z,20.20
2017-10-25T10:04:34.548Z,20.30
2017-10-25T10:07:02.432Z,20.40
2017-10-25T10:09:30.510Z,20.40
2017-10-25T10:11:57.635Z,20.40
2017-10-25T10:14:25.531Z,20.40
2017-10-25T10:16:52.646Z,20.40
2017-10-25T10:19:20.526Z,20.40
2017-10-25T10:21:47.644Z,20.30
2017-10-25T10:24:15.655Z,20.30
2017-10-25T10:26:42.826Z,20.30
2017-10-25T10:29:10.010Z,20.30
2017-10-25T10:31:37.919Z,20.30
2017-10-25T10:34:05.039Z,20.30
2017-10-25T10:36:34.706Z,20.20
2017-10-25T10:39:01.827Z,20.20
2017-10-25T10:41:28.947Z,20.20
2017-10-25T10:43:56.107Z,20.20
2017-10-25T10:46:24.073Z,20.20
2017-10-25T10:48:51.954Z,20.20
2017-10-25T10:51:20.609Z,20.20
2017-10-25T10:53:47.730Z,20.20
2017-10-25T10:56:15.619Z,20.20
2017-10-25T10:58:42.788Z,20.20
2017-10-25T11:01:10.681Z,20.20
2017-10-25T11:03:38.564Z,20.20
2017-10-25T11:06:05.692Z,20.20
2017-10-25T11:08:34.475Z,20.20
2017-10-25T11:11:02.736Z,20.20
2017-10-25T11:13:29.859Z,20.20
2017-10-25T11:15:57.035Z,20.20
2017-10-25T11:18:24.155Z,20.20
2017-10-25T11:20:52.181Z,20.20
2017-10-25T11:23:20.069Z,20.20
2017-10-25T11:25:47.191Z,20.20
2017-10-25T11:28:15.119Z,20.20
2017-10-25T11:30:43.172Z,20.20
2017-10-25T11:33:11.059Z,20.20
2017-10-25T11:35:39.080Z,20.20
2017-10-25T11:38:06.967Z,20.20
2017-10-25T11:40:34.131Z,20.20
2017-10-25T11:43:01.246Z,20.20
2017-10-25T11:45:30.043Z,20.20
2017-10-25T11:47:57.933Z,20.20
2017-10-25T11:50:25.956Z,20.20
2017-10-25T11:52:53.136Z,20.20
2017-10-25T11:55:21.054Z,20.20
2017-10-25T11:57:48.177Z,20.20
2017-10-25T12:00:15.307Z,20.20
2017-10-25T12:02:44.004Z,20.20
2017-10-25T12:05:11.129Z,20.20
2017-10-25T12:07:39.788Z,20.20
2017-10-25T12:10:06.942Z,20.20
2017-10-25T12:12:34.851Z,20.20
2017-10-25T12:15:03.356Z,20.20
2017-10-25T12:17:31.429Z,20.20
2017-10-25T12:19:58.554Z,20.30
2017-10-25T12:22:27.240Z,20.20
2017-10-25T12:24:55.127Z,20.20
2017-10-25T12:27:23.191Z,20.20
2017-10-25T12:29:51.216Z,20.20
2017-10-25T12:32:18.336Z,20.20
2017-10-25T12:34:45.496Z,20.20
2017-10-25T12:37:12.614Z,20.20
2017-10-25T12:39:39.787Z,20.20
2017-10-25T12:42:06.911Z,20.20
2017-10-25T12:44:34.867Z,20.20
2017-10-25T12:47:03.531Z,20.20
2017-10-25T12:49:30.679Z,20.20
2017-10-25T12:51:58.584Z,20.20
2017-10-25T12:54:26.607Z,20.20
2017-10-25T12:56:53.733Z,20.20
2017-10-25T12:59:20.854Z,20.20
2017-10-25T13:01:49.579Z,20.20
2017-10-25T13:04:16.721Z,20.20
2017-10-25T13:06:44.702Z,20.20
2017-10-25T13:09:12.722Z,20.20
2017-10-25T13:11:42.467Z,20.30
2017-10-25T13:14:13.412Z,20.30
2017-10-25T13:16:43.175Z,20.30
2017-10-25T13:19:11.064Z,20.20
2017-10-25T13:21:38.949Z,20.20
2017-10-25T13:24:06.072Z,20.20
2017-10-25T13:26:33.974Z,20.20
2017-10-25T13:29:02.004Z,20.20
2017-10-25T13:31:29.933Z,20.20
2017-10-25T13:33:57.055Z,20.20
2017-10-25T13:36:24.982Z,20.20
2017-10-25T13:38:52.306Z,20.20
2017-10-25T13:41:19.438Z,20.20
2017-10-25T13:43:47.473Z,20.20
2017-10-25T13:46:15.363Z,20.30
2017-10-25T13:48:42.486Z,20.30
2017-10-25T13:51:11.225Z,20.50
2017-10-25T13:53:38.352Z,20.50
2017-10-25T13:56:05.479Z,20.50
2017-10-25T13:58:33.371Z,20.50
2017-10-25T14:01:01.367Z,20.50
2017-10-25T14:03:28.496Z,20.50
2017-10-25T14:05:56.400Z,20.30
2017-10-25T14:08:23.560Z,20.30
2017-10-25T14:10:50.710Z,20.20
2017-10-25T14:13:17.835Z,20.30
2017-10-25T14:15:46.942Z,20.30
2017-10-25T14:18:14.177Z,20.20
2017-10-25T14:20:45.643Z,20.20
2017-10-25T14:23:12.786Z,20.20
2017-10-25T14:25:39.923Z,20.10
2017-10-25T14:28:12.806Z,20.10
2017-10-25T14:30:39.928Z,20.20
2017-10-25T14:33:07.818Z,20.20
2017-10-25T14:35:34.985Z,20.20
2017-10-25T14:38:02.116Z,20.20
2017-10-25T14:40:29.226Z,20.20
2017-10-25T14:42:56.346Z,20.20
2017-10-25T14:45:23.508Z,20.20
2017-10-25T14:47:50.625Z,20.20
2017-10-25T14:50:19.429Z,20.20
2017-10-25T14:52:47.330Z,20.20
2017-10-25T14:55:15.370Z,20.20
2017-10-25T14:57:43.267Z,20.20
2017-10-25T15:00:10.388Z,20.20
2017-10-25T15:02:38.295Z,20.20
2017-10-25T15:05:06.207Z,20.20
2017-10-25T15:07:34.209Z,20.30
2017-10-25T15:10:02.147Z,20.30
2017-10-25T15:12:30.184Z,20.30
2017-10-25T15:14:57.351Z,20.30
2017-10-25T15:17:26.016Z,20.20
2017-10-25T15:19:54.080Z,20.20
2017-10-25T15:22:21.984Z,20.30
2017-10-25T15:24:49.862Z,20.20
2017-10-25T15:27:16.990Z,20.20
2017-10-25T15:29:44.878Z,20.30
2017-10-25T15:32:12.784Z,20.30
2017-10-25T15:34:39.916Z,20.20
2017-10-25T15:37:07.410Z,20.30
2017-10-25T15:39:35.329Z,20.30
2017-10-25T15:42:02.500Z,20.40
2017-10-25T15:44:30.551Z,20.30
2017-10-25T15:46:58.565Z,20.40
2017-10-25T15:49:26.521Z,20.40
2017-10-25T15:51:54.547Z,20.40
2017-10-25T15:54:23.248Z,20.40
2017-10-25T15:56:51.292Z,20.40
2017-10-25T15:59:19.235Z,20.40
2017-10-25T16:01:47.165Z,20.40
2017-10-25T16:04:15.223Z,20.30
2017-10-25T16:06:43.921Z,20.40
2017-10-25T16:09:11.996Z,20.30
2017-10-25T16:11:40.014Z,20.30
2017-10-25T16:14:07.959Z,20.30
2017-10-25T16:16:36.052Z,20.30
2017-10-25T16:19:03.170Z,20.30
2017-10-25T16:21:31.500Z,20.40
2017-10-25T16:24:01.443Z,20.30
2017-10-25T16:26:31.050Z,20.30
2017-10-25T16:29:00.330Z,20.30
2017-10-25T16:31:28.232Z,20.30
2017-10-25T16:33:55.355Z,20.30
2017-10-25T16:36:23.406Z,20.30
2017-10-25T16:38:51.295Z,20.30
2017-10-25T16:41:20.138Z,20.30
2017-10-25T16:43:48.036Z,20.30
2017-10-25T16:46:16.047Z,20.30
2017-10-25T16:48:44.103Z,20.30
2017-10-25T16:51:12.887Z,20.40
2017-10-25T16:53:41.580Z,20.30
2017-10-25T16:56:10.366Z,20.30
2017-10-25T16:58:39.063Z,20.30
2017-10-25T17:01:07.877Z,20.30
2017-10-25T17:03:35.759Z,20.30
2017-10-25T17:06:03.832Z,20.40
2017-10-25T17:08:30.962Z,20.40
2017-10-25T17:10:58.083Z,20.60
2017-10-25T17:13:25.961Z,20.70
2017-10-25T17:15:53.843Z,20.70
2017-10-25T17:18:21.587Z,20.70
2017-10-25T17:20:49.477Z,20.70
2017-10-25T17:23:16.589Z,20.70
2017-10-25T17:25:43.713Z,20.70
2017-10-25T17:28:10.837Z,20.70
2017-10-25T17:30:38.917Z,20.70
2017-10-25T17:33:06.098Z,20.60
2017-10-25T17:35:33.213Z,20.60
2017-10-25T17:38:02.873Z,20.50
2017-10-25T17:40:30.511Z,20.50
2017-10-25T17:42:57.638Z,20.50
2017-10-25T17:45:25.551Z,20.50
2017-10-25T17:47:52.672Z,20.50
2017-10-25T17:50:19.792Z,20.40
2017-10-25T17:52:46.916Z,20.40
2017-10-25T17:55:15.584Z,20.40
2017-10-25T17:57:43.613Z,20.40
2017-10-25T18:00:10.747Z,20.40
2017-10-25T18:02:37.874Z,20.40
2017-10-25T18:05:05.811Z,20.40
2017-10-25T18:07:32.947Z,20.40
2017-10-25T18:10:00.891Z,20.40
2017-10-25T18:12:28.687Z,20.40
2017-10-25T18:14:56.951Z,20.40
2017-10-25T18:17:24.903Z,20.40
2017-10-25T18:19:52.933Z,20.30
2017-10-25T18:22:20.071Z,20.40
2017-10-25T18:24:47.194Z,20.40
2017-10-25T18:27:14.311Z,20.40
2017-10-25T18:29:42.246Z,20.40
2017-10-25T18:32:09.367Z,20.40
2017-10-25T18:34:36.483Z,20.30
2017-10-25T18:37:05.133Z,20.30
2017-10-25T18:39:32.299Z,20.30
2017-10-25T18:42:00.740Z,20.40
2017-10-25T18:44:27.865Z,20.40
2017-10-25T18:46:56.092Z,20.30
2017-10-25T18:49:23.223Z,20.30
2017-10-25T18:51:50.367Z,20.30
2017-10-25T18:54:17.490Z,20.20
2017-10-25T18:56:44.610Z,20.20
2017-10-25T18:59:12.509Z,20.20
2017-10-25T19:01:39.632Z,20.20
2017-10-25T19:04:07.811Z,20.30
2017-10-25T19:06:35.702Z,20.40
2017-10-25T19:09:02.929Z,20.40
2017-10-25T19:11:30.817Z,20.60
2017-10-25T19:13:57.941Z,20.60
2017-10-25T19:16:25.063Z,20.70
2017-10-25T19:18:52.199Z,20.70
2017-10-25T19:21:19.366Z,20.70
2017-10-25T19:23:46.596Z,20.80
2017-10-25T19:26:13.720Z,20.70
2017-10-25T19:28:40.857Z,20.70
2017-10-25T19:31:08.743Z,20.60
2017-10-25T19:33:35.863Z,20.60
2017-10-25T19:36:03.981Z,20.50
2017-10-25T19:38:32.068Z,20.50
2017-10-25T19:40:59.591Z,20.50
2017-10-25T19:43:26.763Z,20.50
2017-10-25T19:45:53.923Z,20.50
2017-10-25T19:48:21.567Z,20.50
2017-10-25T19:50:48.697Z,20.50
2017-10-25T19:53:16.583Z,20.50
2017-10-25T19:55:43.738Z,20.50
2017-10-25T19:58:10.873Z,20.40
2017-10-25T20:00:38.061Z,20.40
2017-10-25T20:03:05.187Z,20.50
2017-10-25T20:05:32.307Z,20.50
2017-10-25T20:08:00.199Z,20.40
2017-10-25T20:10:27.324Z,20.40
2017-10-25T20:12:55.244Z,20.40
2017-10-25T20:15:23.267Z,20.40
2017-10-25T20:17:51.937Z,20.30
2017-10-25T20:20:19.971Z,20.30
2017-10-25T20:22:47.120Z,20.30
2017-10-25T20:25:14.296Z,20.30
2017-10-25T20:27:41.513Z,20.40
2017-10-25T20:30:09.749Z,20.30
2017-10-25T20:32:36.885Z,20.40
2017-10-25T20:35:04.836Z,20.30
2017-10-25T20:37:32.956Z,20.30
2017-10-25T20:40:01.663Z,20.20
2017-10-25T20:42:28.791Z,20.20
2017-10-25T20:44:56.675Z,20.30
2017-10-25T20:47:24.582Z,20.20
2017-10-25T20:49:51.714Z,20.30
2017-10-25T20:52:18.845Z,20.30
2017-10-25T20:54:46.019Z,20.30
2017-10-25T20:57:13.137Z,20.30
2017-10-25T20:59:41.830Z,20.30
2017-10-25T21:02:10.609Z,20.20
2017-10-25T21:04:38.504Z,20.20
2017-10-25T21:07:05.638Z,20.20
2017-10-25T21:09:32.751Z,20.20
2017-10-25T21:11:59.882Z,20.30
2017-10-25T21:14:26.996Z,20.30
2017-10-25T21:16:54.111Z,20.30
2017-10-25T21:19:21.255Z,20.30
2017-10-25T21:21:48.375Z,20.30
2017-10-25T21:24:15.503Z,20.20
2017-10-25T21:26:42.625Z,20.20
2017-10-25T21:29:10.836Z,20.30
2017-10-25T21:31:37.951Z,20.20
2017-10-25T21:34:06.709Z,20.30
2017-10-25T21:36:33.835Z,20.30
2017-10-25T21:39:00.956Z,20.30
2017-10-25T21:41:28.078Z,20.30
2017-10-25T21:43:55.211Z,20.30
2017-10-25T21:46:23.246Z,20.30
2017-10-25T21:48:51.156Z,20.20
2017-10-25T21:51:19.254Z,20.20
2017-10-25T21:53:47.143Z,20.20
2017-10-25T21:56:14.262Z,20.20
2017-10-25T21:58:42.155Z,20.30
2017-10-25T22:01:09.319Z,20.30
2017-10-25T22:03:36.444Z,20.30
2017-10-25T22:06:04.332Z,20.20
2017-10-25T22:08:31.449Z,20.20
2017-10-25T22:10:58.573Z,20.20
2017-10-25T22:13:25.746Z,20.20
2017-10-25T22:15:52.863Z,20.20
2017-10-25T22:18:19.980Z,20.20
2017-10-25T22:20:47.859Z,20.20
2017-10-25T22:23:15.884Z,20.20
2017-10-25T22:25:43.007Z,20.20
2017-10-25T22:28:10.127Z,20.20
2017-10-25T22:30:37.247Z,20.30
2017-10-25T22:33:04.369Z,20.20
2017-10-25T22:35:31.491Z,20.20
2017-10-25T22:37:58.603Z,20.20
2017-10-25T22:40:26.488Z,20.20
2017-10-25T22:42:53.643Z,20.20
2017-10-25T22:45:20.756Z,20.20
2017-10-25T22:47:47.867Z,20.30
2017-10-25T22:50:14.978Z,20.30
2017-10-25T22:52:43.765Z,20.20
2017-10-25T22:55:11.648Z,20.20
2017-10-25T22:57:38.794Z,20.20
2017-10-25T23:00:05.911Z,20.20
2017-10-25T23:02:33.036Z,20.20
2017-10-25T23:05:00.795Z,20.20
2017-10-25T23:07:27.910Z,20.20
2017-10-25T23:09:55.055Z,20.20
2017-10-25T23:12:23.757Z,20.20
2017-10-25T23:14:50.876Z,20.20
2017-10-25T23:17:19.705Z,20.20
2017-10-25T23:19:46.824Z,20.20
2017-10-25T23:22:14.703Z,20.20
2017-10-25T23:24:42.615Z,20.20
2017-10-25T23:27:10.527Z,20.20
2017-10-25T23:29:38.459Z,20.40
2017-10-25T23:32:06.399Z,20.40
2017-10-25T23:34:33.518Z,20.40
2017-10-25T23:37:01.411Z,20.50
2017-10-25T23:39:30.119Z,20.50
2017-10-25T23:41:58.128Z,20.50
2017-10-25T23:44:25.261Z,20.50
2017-10-25T23:46:53.282Z,20.50
2017-10-25T23:49:20.400Z,20.40
2017-10-25T23:51:48.446Z,20.40
2017-10-25T23:54:15.564Z,20.40
2017-10-25T23:56:43.473Z,20.30
2017-10-25T23:59:10.587Z,20.30
